createdAt,value
2022-10-28T00:01:27.725Z,99.90
2022-10-28T00:03:57.676Z,99.90
2022-10-28T00:06:27.594Z,99.90
2022-10-28T00:08:56.599Z,99.90
2022-10-28T00:11:27.922Z,99.90
2022-10-28T00:13:57.656Z,99.90
2022-10-28T00:16:27.813Z,99.90
2022-10-28T00:18:56.861Z,99.90
2022-10-28T00:21:28.624Z,99.90
2022-10-28T00:23:57.361Z,99.90
2022-10-28T00:26:29.357Z,99.90
2022-10-28T00:28:59.178Z,99.90
2022-10-28T00:31:29.218Z,99.90
2022-10-28T00:33:59.315Z,99.90
2022-10-28T00:36:29.143Z,99.90
2022-10-28T00:38:58.962Z,99.90
2022-10-28T00:41:30.943Z,99.90
2022-10-28T00:44:00.833Z,99.90
2022-10-28T00:46:36.106Z,99.90
2022-10-28T00:49:10.672Z,99.90
2022-10-28T00:51:38.872Z,99.90
2022-10-28T00:54:08.543Z,99.90
2022-10-28T00:56:44.486Z,99.90
2022-10-28T00:59:19.262Z,99.90
2022-10-28T01:01:47.843Z,99.90
2022-10-28T01:04:16.453Z,99.90
2022-10-28T01:06:45.885Z,99.90
2022-10-28T01:09:14.565Z,99.90
2022-10-28T01:11:58.465Z,99.90
2022-10-28T01:14:43.791Z,99.90
2022-10-28T01:17:27.125Z,99.90
2022-10-28T01:20:34.892Z,99.90
2022-10-28T01:23:13.662Z,99.90
2022-10-28T01:26:00.406Z,99.90
2022-10-28T01:29:01.477Z,99.90
2022-10-28T01:31:40.739Z,99.90
2022-10-28T01:34:15.471Z,99.90
2022-10-28T01:36:51.778Z,99.90
2022-10-28T01:39:29.598Z,99.90
2022-10-28T01:42:08.283Z,99.90
2022-10-28T01:44:45.176Z,99.90
2022-10-28T01:47:19.299Z,99.90
2022-10-28T01:49:53.370Z,99.90
2022-10-28T01:52:25.842Z,99.90
2022-10-28T01:55:01.023Z,99.90
2022-10-28T01:57:32.511Z,99.90
2022-10-28T02:00:02.892Z,99.90
2022-10-28T02:02:35.386Z,99.90
2022-10-28T02:05:06.917Z,99.90
2022-10-28T02:07:35.227Z,99.90
2022-10-28T02:10:10.815Z,99.90
2022-10-28T02:12:40.287Z,99.90
2022-10-28T02:15:26.597Z,99.90
2022-10-28T02:18:27.378Z,99.90
2022-10-28T02:21:00.572Z,99.90
2022-10-28T02:23:39.871Z,99.90
2022-10-28T02:26:15.935Z,99.90
2022-10-28T02:28:51.646Z,99.90
2022-10-28T02:31:25.162Z,99.90
2022-10-28T02:33:58.415Z,99.90
2022-10-28T02:36:28.553Z,99.90
2022-10-28T02:39:00.022Z,99.90
2022-10-28T02:41:32.333Z,99.90
2022-10-28T02:44:06.680Z,99.90
2022-10-28T02:46:36.762Z,99.90
2022-10-28T02:49:09.944Z,99.90
2022-10-28T02:51:41.399Z,99.90
2022-10-28T02:54:14.298Z,99.90
2022-10-28T02:56:50.480Z,99.90
2022-10-28T02:59:18.824Z,99.90
2022-10-28T03:01:47.157Z,99.90
2022-10-28T03:04:17.429Z,99.90
2022-10-28T03:06:45.936Z,99.90
2022-10-28T03:09:14.164Z,99.90
2022-10-28T03:11:42.877Z,99.90
2022-10-28T03:14:13.301Z,99.90
2022-10-28T03:16:44.143Z,99.90
2022-10-28T03:19:12.434Z,99.90
2022-10-28T03:21:42.015Z,99.90
2022-10-28T03:24:10.501Z,99.90
2022-10-28T03:26:39.003Z,99.90
2022-10-28T03:29:07.250Z,99.90
2022-10-28T03:31:35.444Z,99.90
2022-10-28T03:34:03.673Z,99.90
2022-10-28T03:36:31.857Z,99.90
2022-10-28T03:39:01.610Z,99.90
2022-10-28T03:41:29.950Z,99.90
2022-10-28T03:43:58.226Z,99.90
2022-10-28T03:46:26.436Z,99.90
2022-10-28T03:48:54.735Z,99.90
2022-10-28T03:51:22.978Z,99.90
2022-10-28T03:53:51.200Z,99.90
2022-10-28T03:56:20.737Z,99.90
2022-10-28T03:58:49.755Z,99.90
2022-10-28T04:01:18.245Z,99.90
2022-10-28T04:03:46.599Z,99.90
2022-10-28T04:06:14.795Z,99.90
2022-10-28T04:08:42.966Z,99.90
2022-10-28T04:11:11.195Z,99.90
2022-10-28T04:13:40.868Z,99.90
2022-10-28T04:16:09.187Z,99.90
2022-10-28T04:18:37.444Z,99.90
2022-10-28T04:21:05.928Z,99.90
2022-10-28T04:23:34.154Z,99.90
2022-10-28T04:26:02.532Z,99.90
2022-10-28T04:28:30.731Z,99.90
2022-10-28T04:31:02.153Z,99.90
2022-10-28T04:33:30.469Z,99.90
2022-10-28T04:35:58.731Z,99.90
2022-10-28T04:38:26.879Z,99.90
2022-10-28T04:40:55.098Z,99.90
2022-10-28T04:43:23.255Z,99.90
2022-10-28T04:45:51.781Z,99.90
2022-10-28T04:48:22.043Z,99.90
2022-10-28T04:50:51.047Z,99.90
2022-10-28T04:53:19.376Z,99.90
2022-10-28T04:55:47.619Z,99.90
2022-10-28T04:58:15.892Z,99.90
2022-10-28T05:00:44.084Z,99.90
2022-10-28T05:03:12.262Z,99.90
2022-10-28T05:05:41.994Z,99.90
2022-10-28T05:08:10.190Z,99.90
2022-10-28T05:10:38.351Z,99.90
2022-10-28T05:13:06.626Z,99.90
2022-10-28T05:15:34.855Z,99.90
2022-10-28T05:18:03.046Z,99.90
2022-10-28T05:20:31.232Z,99.90
2022-10-28T05:23:00.780Z,99.90
2022-10-28T05:25:29.022Z,99.90
2022-10-28T05:28:00.430Z,99.90
2022-10-28T05:30:29.527Z,99.90
2022-10-28T05:33:02.514Z,99.90
2022-10-28T05:35:31.289Z,99.90
2022-10-28T05:38:01.108Z,99.90
2022-10-28T05:40:29.579Z,99.90
2022-10-28T05:42:58.139Z,99.90
2022-10-28T05:45:26.564Z,99.90
2022-10-28T05:47:55.093Z,99.90
2022-10-28T05:50:24.134Z,99.90
2022-10-28T05:52:53.736Z,99.90
2022-10-28T05:55:27.901Z,99.90
2022-10-28T05:57:57.006Z,99.90
2022-10-28T06:00:27.628Z,99.90
2022-10-28T06:03:04.292Z,99.90
2022-10-28T06:05:32.438Z,99.90
2022-10-28T06:08:00.613Z,99.90
2022-10-28T06:10:30.261Z,99.90
2022-10-28T06:12:57.455Z,99.90
2022-10-28T06:15:25.990Z,99.90
2022-10-28T06:17:54.183Z,99.90
2022-10-28T06:20:22.548Z,99.90
2022-10-28T06:22:52.628Z,99.90
2022-10-28T06:25:22.760Z,99.90
2022-10-28T06:27:55.962Z,99.90
2022-10-28T06:30:25.685Z,99.90
2022-10-28T06:32:56.775Z,99.90
2022-10-28T06:35:25.130Z,99.90
2022-10-28T06:37:54.655Z,99.90
2022-10-28T06:40:23.176Z,99.90
2022-10-28T06:42:58.901Z,99.90
2022-10-28T06:45:27.549Z,99.90
2022-10-28T06:47:57.877Z,99.90
2022-10-28T06:50:26.878Z,99.90
2022-10-28T06:52:56.847Z,99.90
2022-10-28T06:55:25.437Z,99.90
2022-10-28T06:57:54.314Z,99.90
2022-10-28T07:00:25.107Z,99.90
2022-10-28T07:02:54.941Z,99.90
2022-10-28T07:05:24.793Z,99.90
2022-10-28T07:07:54.001Z,99.90
2022-10-28T07:10:22.440Z,99.90
2022-10-28T07:12:50.853Z,99.90
2022-10-28T07:15:19.295Z,99.90
2022-10-28T07:17:53.596Z,99.90
2022-10-28T07:20:21.969Z,99.90
2022-10-28T07:22:56.437Z,99.90
2022-10-28T07:25:24.708Z,99.90
2022-10-28T07:27:53.238Z,99.90
2022-10-28T07:30:21.644Z,99.90
2022-10-28T07:32:51.381Z,99.90
2022-10-28T07:35:19.792Z,99.90
2022-10-28T07:37:48.117Z,99.90
2022-10-28T07:40:16.397Z,99.90
2022-10-28T07:42:44.712Z,99.90
2022-10-28T07:45:12.863Z,99.90
2022-10-28T07:47:41.078Z,99.90
2022-10-28T07:50:11.594Z,99.90
2022-10-28T07:52:40.084Z,99.90
2022-10-28T07:55:09.505Z,99.90
2022-10-28T07:57:37.724Z,99.90
2022-10-28T08:00:07.920Z,99.80
2022-10-28T08:02:36.271Z,96.70
2022-10-28T08:05:04.926Z,94.50
2022-10-28T08:07:37.696Z,93.20
2022-10-28T08:10:08.122Z,95.50
2022-10-28T08:12:36.343Z,95.90
2022-10-28T08:15:04.983Z,98.40
2022-10-28T08:17:33.284Z,99.00
2022-10-28T08:20:01.454Z,99.90
2022-10-28T08:22:29.728Z,99.90
2022-10-28T08:24:59.284Z,99.90
2022-10-28T08:27:27.457Z,99.90
2022-10-28T08:29:55.823Z,99.90
2022-10-28T08:32:23.998Z,99.90
2022-10-28T08:34:52.212Z,99.90
2022-10-28T08:37:20.556Z,99.90
2022-10-28T08:39:48.789Z,99.90
2022-10-28T08:42:35.206Z,99.90
2022-10-28T08:45:21.648Z,99.90
2022-10-28T08:50:43.251Z,99.90
2022-10-28T08:53:16.402Z,99.90
2022-10-28T08:55:47.123Z,99.90
2022-10-28T08:58:21.716Z,99.90
2022-10-28T09:00:54.316Z,99.90
2022-10-28T09:03:25.536Z,99.90
2022-10-28T09:06:00.010Z,99.90
2022-10-28T09:08:29.686Z,99.90
2022-10-28T09:11:05.781Z,99.90
2022-10-28T09:13:47.432Z,99.90
2022-10-28T09:16:19.533Z,99.90
2022-10-28T09:18:53.380Z,99.90
2022-10-28T09:21:31.186Z,99.90
2022-10-28T09:24:01.102Z,99.90
2022-10-28T09:26:45.601Z,99.90
2022-10-28T09:29:33.777Z,99.90
2022-10-28T09:32:08.670Z,99.90
2022-10-28T09:34:44.921Z,99.90
2022-10-28T09:37:18.341Z,99.90
2022-10-28T09:39:49.637Z,99.90
2022-10-28T09:42:23.445Z,99.90
2022-10-28T09:44:58.180Z,99.90
2022-10-28T09:47:31.240Z,99.90
2022-10-28T09:50:03.159Z,99.90
2022-10-28T09:52:35.975Z,99.90
2022-10-28T09:55:16.669Z,99.90
2022-10-28T09:57:44.966Z,99.90
2022-10-28T10:00:16.705Z,99.90
2022-10-28T10:02:46.394Z,99.90
2022-10-28T10:05:17.426Z,99.90
2022-10-28T10:07:50.218Z,99.90
2022-10-28T10:10:23.170Z,99.90
2022-10-28T10:12:53.668Z,99.90
2022-10-28T10:15:32.481Z,99.90
2022-10-28T10:18:03.331Z,99.90
2022-10-28T10:20:48.811Z,99.90
2022-10-28T10:23:25.606Z,99.90
2022-10-28T10:26:00.132Z,99.90
2022-10-28T10:28:29.477Z,99.90
2022-10-28T10:31:00.968Z,99.90
2022-10-28T10:33:33.317Z,99.90
2022-10-28T10:36:04.734Z,99.90
2022-10-28T10:38:33.013Z,99.90
2022-10-28T10:41:01.282Z,99.90
2022-10-28T10:43:33.234Z,99.90
2022-10-28T10:46:05.247Z,99.90
2022-10-28T10:48:36.485Z,99.90
2022-10-28T10:51:09.754Z,99.90
2022-10-28T10:53:39.746Z,99.90
2022-10-28T10:56:11.186Z,99.90
2022-10-28T10:58:48.340Z,99.90
2022-10-28T11:01:22.697Z,99.90
2022-10-28T11:03:55.527Z,99.90
2022-10-28T11:06:28.276Z,99.90
2022-10-28T11:08:59.761Z,99.90
2022-10-28T11:11:35.702Z,96.70
2022-10-28T11:14:07.170Z,90.70
2022-10-28T11:16:48.611Z,86.70
2022-10-28T11:19:22.292Z,79.20
2022-10-28T11:22:13.697Z,78.40
2022-10-28T11:24:58.305Z,74.20
2022-10-28T11:27:35.515Z,72.80
2022-10-28T11:30:04.783Z,72.20
2022-10-28T11:33:02.232Z,71.90
2022-10-28T11:35:53.966Z,68.00
2022-10-28T11:38:50.532Z,66.20
2022-10-28T11:41:30.053Z,67.40
2022-10-28T11:44:04.701Z,67.40
2022-10-28T11:46:50.777Z,66.10
2022-10-28T11:49:59.282Z,63.00
2022-10-28T11:52:45.137Z,62.30
2022-10-28T11:55:23.416Z,62.30
2022-10-28T11:58:03.475Z,62.10
2022-10-28T12:00:46.622Z,61.70
2022-10-28T12:03:42.629Z,60.90
2022-10-28T12:06:21.163Z,58.40
2022-10-28T12:09:11.592Z,60.50
2022-10-28T12:14:34.594Z,57.50
2022-10-28T12:17:14.684Z,57.50
2022-10-28T12:19:48.262Z,57.90
2022-10-28T12:22:23.462Z,56.90
2022-10-28T12:24:54.477Z,57.70
2022-10-28T12:27:26.940Z,57.00
2022-10-28T12:30:01.336Z,55.80
2022-10-28T12:32:33.402Z,55.40
2022-10-28T12:35:06.489Z,54.60
2022-10-28T12:37:43.389Z,54.10
2022-10-28T12:40:20.742Z,55.10
2022-10-28T12:42:54.975Z,55.00
2022-10-28T12:45:24.373Z,56.20
2022-10-28T12:47:58.954Z,55.80
2022-10-28T12:50:33.651Z,54.30
2022-10-28T12:53:20.164Z,53.70
2022-10-28T12:55:53.264Z,54.50
2022-10-28T12:58:26.492Z,55.30
2022-10-28T13:00:57.816Z,55.70
2022-10-28T13:03:26.043Z,54.50
2022-10-28T13:06:06.982Z,55.50
2022-10-28T13:08:59.621Z,55.20
2022-10-28T13:12:02.135Z,53.80
2022-10-28T13:15:21.013Z,54.80
2022-10-28T13:18:04.183Z,54.00
2022-10-28T13:20:47.035Z,56.10
2022-10-28T13:23:27.858Z,55.30
2022-10-28T13:26:06.261Z,56.10
2022-10-28T13:28:43.083Z,56.80
2022-10-28T13:31:11.725Z,56.60
2022-10-28T13:33:40.593Z,56.10
2022-10-28T13:36:18.598Z,57.90
2022-10-28T13:38:55.620Z,56.60
2022-10-28T13:41:43.424Z,57.20
2022-10-28T13:44:29.899Z,55.60
2022-10-28T13:47:03.252Z,56.90
2022-10-28T13:49:31.634Z,58.20
2022-10-28T13:52:05.027Z,59.30
2022-10-28T13:54:52.963Z,59.30
2022-10-28T13:57:28.140Z,60.10
2022-10-28T13:59:59.718Z,61.60
2022-10-28T14:02:38.633Z,63.80
2022-10-28T14:05:09.840Z,64.20
2022-10-28T14:07:42.428Z,64.50
2022-10-28T14:10:24.561Z,64.70
2022-10-28T14:12:56.079Z,66.40
2022-10-28T14:15:29.582Z,67.10
2022-10-28T14:18:10.419Z,68.50
2022-10-28T14:21:00.905Z,71.30
2022-10-28T14:24:17.134Z,73.50
2022-10-28T14:27:28.350Z,74.50
2022-10-28T14:30:15.612Z,78.00
2022-10-28T14:32:57.245Z,79.40
2022-10-28T14:35:32.510Z,79.70
2022-10-28T14:38:37.382Z,79.70
2022-10-28T14:41:18.792Z,81.00
2022-10-28T14:43:58.467Z,81.00
2022-10-28T14:46:37.301Z,80.80
2022-10-28T14:49:19.011Z,81.90
2022-10-28T14:51:47.761Z,82.40
2022-10-28T14:54:18.970Z,83.10
2022-10-28T14:56:47.643Z,85.00
2022-10-28T14:59:27.094Z,84.80
2022-10-28T15:02:05.624Z,86.80
2022-10-28T15:04:35.370Z,87.80
2022-10-28T15:07:03.689Z,89.70
2022-10-28T15:09:34.911Z,90.20
2022-10-28T15:12:07.743Z,90.70
2022-10-28T15:14:38.292Z,91.40
2022-10-28T15:17:14.392Z,91.70
2022-10-28T15:19:46.027Z,92.10
2022-10-28T15:22:17.407Z,92.10
2022-10-28T15:24:54.937Z,92.10
2022-10-28T15:27:26.062Z,91.90
2022-10-28T15:29:55.880Z,91.80
2022-10-28T15:32:32.689Z,91.30
2022-10-28T15:35:41.496Z,91.10
2022-10-28T15:38:33.450Z,91.50
2022-10-28T15:41:02.288Z,91.10
2022-10-28T15:43:32.046Z,91.20
2022-10-28T15:46:11.183Z,91.80
2022-10-28T15:48:40.258Z,92.30
2022-10-28T15:51:17.802Z,92.20
2022-10-28T15:53:47.000Z,92.80
2022-10-28T15:56:21.479Z,93.80
2022-10-28T15:59:04.232Z,94.20
2022-10-28T16:01:39.493Z,94.40
2022-10-28T16:04:29.093Z,95.30
2022-10-28T16:07:09.004Z,96.10
2022-10-28T16:09:39.061Z,97.00
2022-10-28T16:12:16.629Z,98.00
2022-10-28T16:14:46.667Z,98.70
2022-10-28T16:17:18.150Z,99.90
2022-10-28T16:19:47.770Z,99.90
2022-10-28T16:22:18.441Z,99.90
2022-10-28T16:24:47.601Z,99.90
2022-10-28T16:27:20.855Z,99.90
2022-10-28T16:29:49.723Z,99.90
2022-10-28T16:32:21.812Z,99.90
2022-10-28T16:34:50.047Z,99.90
2022-10-28T16:37:30.672Z,99.90
2022-10-28T16:40:00.229Z,99.90
2022-10-28T16:42:29.093Z,99.90
2022-10-28T16:44:58.249Z,99.90
2022-10-28T16:47:28.032Z,99.90
2022-10-28T16:49:57.960Z,99.90
2022-10-28T16:52:30.304Z,99.90
2022-10-28T16:54:59.879Z,99.90
2022-10-28T16:57:29.186Z,99.90
2022-10-28T16:59:58.074Z,99.90
2022-10-28T17:02:29.428Z,99.90
2022-10-28T17:04:58.525Z,99.90
2022-10-28T17:07:28.887Z,99.90
2022-10-28T17:09:57.602Z,99.90
2022-10-28T17:12:27.955Z,99.90
2022-10-28T17:14:56.960Z,99.90
2022-10-28T17:17:25.749Z,99.90
2022-10-28T17:19:53.970Z,99.90
2022-10-28T17:22:22.254Z,99.90
2022-10-28T17:24:51.940Z,99.90
2022-10-28T17:27:20.349Z,99.90
2022-10-28T17:29:48.712Z,99.90
2022-10-28T17:32:17.369Z,99.90
2022-10-28T17:34:45.561Z,99.90
2022-10-28T17:37:13.781Z,99.90
2022-10-28T17:39:42.456Z,99.90
2022-10-28T17:42:12.443Z,99.90
2022-10-28T17:44:41.017Z,99.90
2022-10-28T17:47:09.614Z,99.90
2022-10-28T17:49:37.957Z,99.90
2022-10-28T17:52:07.286Z,99.90
2022-10-28T17:54:35.749Z,99.90
2022-10-28T17:57:04.623Z,99.90
2022-10-28T17:59:34.508Z,99.90
2022-10-28T18:02:03.299Z,99.90
2022-10-28T18:04:31.762Z,99.90
2022-10-28T18:07:00.317Z,99.90
2022-10-28T18:09:31.847Z,99.90
2022-10-28T18:12:02.329Z,99.90
2022-10-28T18:14:32.088Z,99.90
2022-10-28T18:17:04.006Z,99.90
2022-10-28T18:19:32.565Z,99.90
2022-10-28T18:22:01.207Z,99.90
2022-10-28T18:24:29.622Z,99.90
2022-10-28T18:26:58.080Z,99.90
2022-10-28T18:29:26.603Z,99.90
2022-10-28T18:31:55.449Z,99.90
2022-10-28T18:34:25.961Z,99.90
2022-10-28T18:36:54.831Z,99.90
2022-10-28T18:39:24.313Z,99.90
2022-10-28T18:41:53.080Z,99.90
2022-10-28T18:44:27.615Z,99.90
2022-10-28T18:46:56.288Z,99.90
2022-10-28T18:49:26.153Z,99.90
2022-10-28T18:51:54.361Z,99.90
2022-10-28T18:54:23.191Z,99.90
2022-10-28T18:56:55.180Z,99.90
2022-10-28T18:59:26.680Z,99.90
2022-10-28T19:01:55.421Z,99.90
2022-10-28T19:04:26.020Z,99.90
2022-10-28T19:06:54.886Z,99.90
2022-10-28T19:09:23.585Z,99.90
2022-10-28T19:11:52.189Z,99.90
2022-10-28T19:14:20.882Z,99.90
2022-10-28T19:16:52.869Z,99.90
2022-10-28T19:19:21.233Z,99.90
2022-10-28T19:21:51.745Z,99.90
2022-10-28T19:24:19.898Z,99.90
2022-10-28T19:26:48.203Z,99.90
2022-10-28T19:29:16.543Z,99.90
2022-10-28T19:31:44.790Z,99.90
2022-10-28T19:34:15.044Z,99.90
2022-10-28T19:36:43.249Z,99.90
2022-10-28T19:39:13.057Z,99.90
2022-10-28T19:41:41.365Z,99.90
2022-10-28T19:44:09.905Z,99.90
2022-10-28T19:46:38.153Z,99.90
2022-10-28T19:49:07.587Z,99.90
2022-10-28T19:51:37.161Z,99.90
2022-10-28T19:54:07.075Z,99.90
2022-10-28T19:56:37.171Z,99.90
2022-10-28T19:59:07.050Z,99.90
2022-10-28T20:01:38.745Z,99.90
2022-10-28T20:04:08.623Z,99.90
2022-10-28T20:06:40.595Z,99.90
2022-10-28T20:09:09.263Z,99.90
2022-10-28T20:11:40.518Z,99.90
2022-10-28T20:14:12.553Z,99.90
2022-10-28T20:16:43.907Z,99.90
2022-10-28T20:19:12.320Z,99.90
2022-10-28T20:21:40.817Z,99.90
2022-10-28T20:24:09.738Z,99.90
2022-10-28T20:26:40.807Z,99.90
2022-10-28T20:29:09.991Z,99.90
2022-10-28T20:31:39.901Z,99.90
2022-10-28T20:34:08.848Z,99.90
2022-10-28T20:36:38.364Z,99.90
2022-10-28T20:39:09.622Z,99.90
2022-10-28T20:41:41.621Z,99.90
2022-10-28T20:44:10.224Z,99.90
2022-10-28T20:46:39.091Z,99.90
2022-10-28T20:49:09.790Z,99.90
2022-10-28T20:51:38.298Z,99.90
2022-10-28T20:54:07.020Z,99.90
2022-10-28T20:56:37.409Z,99.90
2022-10-28T20:59:07.262Z,99.90
2022-10-28T21:01:37.039Z,99.90
2022-10-28T21:04:07.676Z,99.90
2022-10-28T21:06:37.536Z,99.90
2022-10-28T21:09:06.978Z,99.90
2022-10-28T21:11:35.775Z,99.90
2022-10-28T21:14:04.130Z,99.90
2022-10-28T21:16:33.807Z,99.90
2022-10-28T21:19:02.225Z,99.90
2022-10-28T21:21:31.444Z,99.90
2022-10-28T21:23:59.802Z,99.90
2022-10-28T21:26:28.248Z,99.90
2022-10-28T21:28:57.622Z,99.90
2022-10-28T21:31:26.782Z,99.90
2022-10-28T21:33:56.629Z,99.90
2022-10-28T21:36:26.145Z,99.90
2022-10-28T21:38:56.512Z,99.90
2022-10-28T21:41:26.513Z,99.90
2022-10-28T21:43:57.288Z,99.90
2022-10-28T21:46:26.565Z,99.90
2022-10-28T21:48:57.123Z,99.90
2022-10-28T21:51:25.412Z,99.90
2022-10-28T21:53:54.605Z,99.90
2022-10-28T21:56:23.711Z,99.90
2022-10-28T21:58:52.422Z,99.90
2022-10-28T22:01:23.566Z,99.90
2022-10-28T22:03:53.233Z,99.90
2022-10-28T22:06:24.344Z,99.90
2022-10-28T22:08:54.722Z,99.90
2022-10-28T22:11:25.750Z,99.90
2022-10-28T22:13:59.728Z,99.90
2022-10-28T22:16:29.255Z,99.90
2022-10-28T22:19:03.308Z,99.90
2022-10-28T22:21:35.434Z,99.90
2022-10-28T22:24:03.887Z,99.90
2022-10-28T22:26:33.314Z,99.90
2022-10-28T22:29:02.185Z,99.90
2022-10-28T22:31:33.382Z,99.90
2022-10-28T22:34:03.286Z,99.90
2022-10-28T22:36:35.257Z,99.90
2022-10-28T22:39:03.912Z,99.90
2022-10-28T22:41:34.179Z,99.90
2022-10-28T22:44:03.323Z,99.90
2022-10-28T22:46:33.662Z,99.90
2022-10-28T22:49:01.969Z,99.90
2022-10-28T22:51:30.272Z,99.90
2022-10-28T22:54:01.099Z,99.90
2022-10-28T22:56:31.275Z,99.90
2022-10-28T22:59:01.450Z,99.90
2022-10-28T23:01:30.486Z,99.90
2022-10-28T23:03:58.827Z,99.90
2022-10-28T23:06:28.304Z,99.90
2022-10-28T23:08:57.450Z,99.90
2022-10-28T23:11:27.211Z,99.90
2022-10-28T23:13:56.573Z,99.90
2022-10-28T23:16:25.640Z,99.90
2022-10-28T23:18:54.234Z,99.90
2022-10-28T23:21:24.068Z,99.90
2022-10-28T23:23:54.853Z,99.90
2022-10-28T23:26:24.014Z,99.90
2022-10-28T23:28:55.074Z,99.90
2022-10-28T23:31:24.353Z,99.90
2022-10-28T23:33:53.688Z,99.90
2022-10-28T23:36:22.451Z,99.90
2022-10-28T23:38:50.661Z,99.90
2022-10-28T23:41:21.069Z,99.90
2022-10-28T23:43:49.853Z,99.90
2022-10-28T23:46:20.604Z,99.90
2022-10-28T23:48:48.794Z,99.90
2022-10-28T23:51:19.350Z,99.90
2022-10-28T23:53:47.638Z,99.90
2022-10-28T23:56:16.319Z,99.90
2022-10-28T23:58:44.972Z,99.90
